WXM80 ListenWXM80 Stop

You find our weather info also at:

UK Metoffice

WeatherCloud

Weather Underground

Northeastern Weather Network

AWEKAS

Citizen Weather Observer Program (CWOP)

HAMweather, WeatherForYou, PWS Weather


Weather Underground History page Text

Daily Summary for November 28, 2016 Units:  English    Metric   Both
« Previous Day
Next Day »
Daily Weekly Monthly Yearly Custom
  High: Low: Average:
Temperature: 51.3 °F 37.1 °F 43.4 °F
Dew Point: 37.7 °F 32.6 °F 35.1 °F
Humidity: 90 % 52 % 73 %
Wind Speed: 6.9 mph 0.0 mph 1.6 mph
Wind Gust: 13.8 mph - -
Wind:- - West
Pressure: 30.19 in 30.08 in -
Precipitation: 0.00 in    
Historical Graphs
 
 
Tabular Data for November 28, 2016
Time Temperature Dew Point Pressure Wind Wind Speed Wind Gust Humidity Rainfall Rate (Hourly)
00:05 43.1 °F 34.7 °F 30.08 in NW 5.1 mph 10.0 mph 72 % 0.00 in
00:10 43.1 °F 34.7 °F 30.08 in NW 6.6 mph 13.8 mph 72 % 0.00 in
00:15 43.1 °F 35.0 °F 30.08 in WNW 2.6 mph 6.9 mph 73 % 0.00 in
00:20 43.0 °F 34.9 °F 30.08 in West 3.0 mph 10.0 mph 73 % 0.00 in
00:25 42.9 °F 34.8 °F 30.09 in WSW 2.4 mph 9.2 mph 73 % 0.00 in
00:30 42.8 °F 34.7 °F 30.09 in West 5.6 mph 10.4 mph 73 % 0.00 in
00:35 42.7 °F 34.6 °F 30.09 in WNW 5.0 mph 10.0 mph 73 % 0.00 in
00:40 42.6 °F 34.5 °F 30.09 in WNW 1.9 mph 4.6 mph 73 % 0.00 in
00:45 42.5 °F 34.5 °F 30.09 in West 5.0 mph 9.0 mph 73 % 0.00 in
00:50 42.5 °F 34.4 °F 30.09 in WNW 2.0 mph 10.0 mph 73 % 0.00 in
00:55 42.4 °F 34.4 °F 30.09 in West 2.6 mph 4.6 mph 73 % 0.00 in
01:00 42.3 °F 34.3 °F 30.09 in West 2.2 mph 8.1 mph 73 % 0.00 in
01:05 42.2 °F 34.5 °F 30.10 in WSW 2.1 mph 4.6 mph 74 % 0.00 in
01:10 42.1 °F 34.4 °F 30.10 in West 2.3 mph 8.1 mph 74 % 0.00 in
01:15 42.0 °F 34.3 °F 30.10 in WSW 2.3 mph 3.5 mph 74 % 0.00 in
01:20 42.0 °F 34.3 °F 30.11 in West 2.9 mph 8.1 mph 74 % 0.00 in
01:25 41.9 °F 34.2 °F 30.11 in WNW 5.7 mph 8.1 mph 74 % 0.00 in
01:30 41.8 °F 34.1 °F 30.11 in WSW 4.1 mph 6.9 mph 74 % 0.00 in
01:36 41.8 °F 34.1 °F 30.12 in West 2.1 mph 9.2 mph 74 % 0.00 in
01:41 41.7 °F 34.0 °F 30.11 in WSW 3.9 mph 8.1 mph 74 % 0.00 in
01:46 41.7 °F 34.4 °F 30.11 in WNW 4.2 mph 4.2 mph 75 % 0.00 in
01:51 41.6 °F 34.3 °F 30.11 in West 4.6 mph 7.0 mph 75 % 0.00 in
01:56 41.5 °F 34.5 °F 30.12 in West 2.1 mph 5.8 mph 76 % 0.00 in
02:01 41.4 °F 34.4 °F 30.12 in West 3.2 mph 11.5 mph 76 % 0.00 in
02:06 41.4 °F 34.4 °F 30.12 in West 0.2 mph 2.3 mph 76 % 0.00 in
02:11 41.4 °F 34.4 °F 30.13 in West 1.0 mph 4.0 mph 76 % 0.00 in
02:16 41.3 °F 34.3 °F 30.12 in NW 1.5 mph 4.0 mph 76 % 0.00 in
02:21 41.3 °F 34.6 °F 30.12 in West 3.3 mph 5.8 mph 77 % 0.00 in
02:27 41.2 °F 34.5 °F 30.12 in NW 3.0 mph 4.6 mph 77 % 0.00 in
02:32 41.2 °F 34.5 °F 30.12 in WSW 3.8 mph 4.6 mph 77 % 0.00 in
02:37 41.2 °F 34.5 °F 30.12 in West 1.7 mph 5.8 mph 77 % 0.00 in
02:42 41.2 °F 34.5 °F 30.12 in WNW 4.3 mph 8.1 mph 77 % 0.00 in
02:47 41.2 °F 34.5 °F 30.12 in WNW 2.4 mph 8.1 mph 77 % 0.00 in
02:52 41.2 °F 34.5 °F 30.12 in WNW 4.7 mph 6.9 mph 77 % 0.00 in
02:57 41.2 °F 34.5 °F 30.11 in West 3.6 mph 9.2 mph 77 % 0.00 in
03:02 41.3 °F 34.6 °F 30.12 in West 3.7 mph 7.0 mph 77 % 0.00 in
03:07 41.3 °F 34.6 °F 30.12 in West 5.7 mph 10.4 mph 77 % 0.00 in
03:12 41.3 °F 34.6 °F 30.12 in SW 3.0 mph 8.1 mph 77 % 0.00 in
03:23 41.2 °F 34.5 °F 30.12 in NW 2.1 mph 5.8 mph 77 % 0.00 in
03:28 41.2 °F 34.5 °F 30.12 in WNW 3.8 mph 8.1 mph 77 % 0.00 in
03:33 41.2 °F 34.5 °F 30.12 in WNW 1.9 mph 5.8 mph 77 % 0.00 in
03:38 41.2 °F 34.5 °F 30.12 in West 4.9 mph 8.1 mph 77 % 0.00 in
03:43 41.1 °F 34.4 °F 30.12 in WNW 1.4 mph 4.6 mph 77 % 0.00 in
03:48 41.0 °F 34.3 °F 30.12 in NW 3.1 mph 5.0 mph 77 % 0.00 in
03:53 41.0 °F 34.3 °F 30.12 in WNW 0.9 mph 4.6 mph 77 % 0.00 in
03:58 40.9 °F 34.6 °F 30.12 in WNW 3.4 mph 8.1 mph 78 % 0.00 in
04:03 40.9 °F 34.6 °F 30.11 in West 2.5 mph 5.8 mph 78 % 0.00 in
04:09 40.8 °F 34.5 °F 30.12 in West 4.4 mph 5.0 mph 78 % 0.00 in
04:14 40.6 °F 34.3 °F 30.12 in WNW 4.5 mph 6.9 mph 78 % 0.00 in
04:19 40.6 °F 34.3 °F 30.12 in West 4.4 mph 6.9 mph 78 % 0.00 in
04:24 40.5 °F 34.5 °F 30.12 in WNW 1.6 mph 3.5 mph 79 % 0.00 in
04:29 40.4 °F 34.4 °F 30.12 in WNW 0.5 mph 2.3 mph 79 % 0.00 in
04:34 40.3 °F 34.3 °F 30.12 in SW 1.6 mph 3.5 mph 79 % 0.00 in
04:39 40.2 °F 34.2 °F 30.13 in WNW 1.0 mph 5.8 mph 79 % 0.00 in
04:44 40.1 °F 34.1 °F 30.13 in West 1.9 mph 5.8 mph 79 % 0.00 in
04:49 40.1 °F 34.1 °F 30.12 in West 1.5 mph 5.0 mph 79 % 0.00 in
04:54 39.9 °F 33.9 °F 30.12 in West 1.7 mph 5.8 mph 79 % 0.00 in
04:59 39.9 °F 33.9 °F 30.12 in WNW 0.9 mph 3.0 mph 79 % 0.00 in
05:05 39.8 °F 34.1 °F 30.12 in WNW 1.0 mph 3.5 mph 80 % 0.00 in
05:10 39.8 °F 33.8 °F 30.12 in WNW 2.6 mph 3.5 mph 79 % 0.00 in
05:15 39.7 °F 34.0 °F 30.12 in West 2.1 mph 3.0 mph 80 % 0.00 in
05:20 39.7 °F 34.0 °F 30.12 in West 2.0 mph 4.0 mph 80 % 0.00 in
05:25 39.6 °F 33.9 °F 30.12 in Calm   3.0 mph 80 % 0.00 in
05:30 39.5 °F 33.8 °F 30.13 in SW 0.8 mph 3.5 mph 80 % 0.00 in
05:35 39.4 °F 34.1 °F 30.14 in WSW 1.0 mph 4.0 mph 81 % 0.00 in
05:40 39.3 °F 34.0 °F 30.14 in WSW 1.0 mph 4.0 mph 81 % 0.00 in
05:45 39.2 °F 34.2 °F 30.14 in WSW 1.4 mph 2.3 mph 82 % 0.00 in
05:50 39.1 °F 34.1 °F 30.14 in WSW 1.0 mph 3.0 mph 82 % 0.00 in
05:55 39.0 °F 34.0 °F 30.14 in SW 1.0 mph 5.0 mph 82 % 0.00 in
06:00 38.9 °F 34.2 °F 30.15 in WSW 0.5 mph 2.3 mph 83 % 0.00 in
06:05 38.8 °F 34.1 °F 30.15 in WSW 1.0 mph 4.0 mph 83 % 0.00 in
06:10 38.6 °F 33.9 °F 30.14 in Calm   1.0 mph 83 % 0.00 in
06:15 38.5 °F 33.5 °F 30.14 in WSW 0.6 mph 1.2 mph 82 % 0.00 in
06:20 38.3 °F 33.3 °F 30.14 in WSW 1.0 mph 3.0 mph 82 % 0.00 in
06:25 38.0 °F 33.0 °F 30.15 in WSW 1.0 mph 3.0 mph 82 % 0.00 in
06:30 37.8 °F 33.1 °F 30.15 in Calm   1.2 mph 83 % 0.00 in
06:35 37.5 °F 32.8 °F 30.15 in WSW 1.0 mph 4.0 mph 83 % 0.00 in
06:40 37.3 °F 32.6 °F 30.15 in Calm   3.0 mph 83 % 0.00 in
06:45 37.1 °F 33.0 °F 30.15 in West 2.7 mph 3.5 mph 85 % 0.00 in
06:50 37.1 °F 33.0 °F 30.15 in WSW 2.0 mph 8.0 mph 85 % 0.00 in
06:55 37.1 °F 33.3 °F 30.16 in West 1.0 mph 6.0 mph 86 % 0.00 in
07:00 37.3 °F 33.5 °F 30.16 in WNW 3.8 mph 4.0 mph 86 % 0.00 in
07:05 37.5 °F 33.7 °F 30.16 in West 1.0 mph 7.0 mph 86 % 0.00 in
07:10 37.7 °F 33.9 °F 30.16 in West 1.0 mph 5.0 mph 86 % 0.00 in
07:15 37.9 °F 34.1 °F 30.16 in WNW 0.5 mph 5.0 mph 86 % 0.00 in
07:20 38.1 °F 34.3 °F 30.16 in West 2.0 mph 7.0 mph 86 % 0.00 in
07:25 38.3 °F 34.5 °F 30.16 in WNW 1.0 mph 5.0 mph 86 % 0.00 in
07:30 38.6 °F 34.5 °F 30.17 in West 1.0 mph 6.0 mph 85 % 0.00 in
07:35 38.8 °F 34.4 °F 30.17 in West 1.0 mph 5.0 mph 84 % 0.00 in
07:40 39.0 °F 34.6 °F 30.17 in West 2.0 mph 6.0 mph 84 % 0.00 in
07:45 39.2 °F 34.8 °F 30.17 in WNW 1.7 mph 3.5 mph 84 % 0.00 in
07:50 39.4 °F 34.9 °F 30.17 in West 2.0 mph 4.0 mph 84 % 0.00 in
07:55 39.6 °F 34.9 °F 30.17 in West 2.0 mph 6.0 mph 83 % 0.00 in
08:00 39.9 °F 35.2 °F 30.17 in SW 1.4 mph 3.0 mph 83 % 0.00 in
08:05 40.0 °F 35.3 °F 30.17 in SW 2.0 mph 6.0 mph 83 % 0.00 in
08:10 40.2 °F 35.4 °F 30.17 in SW 0.6 mph 3.5 mph 83 % 0.00 in
08:15 40.4 °F 35.6 °F 30.17 in SW 3.5 mph 4.6 mph 83 % 0.00 in
08:25 40.9 °F 36.1 °F 30.17 in West 2.8 mph 3.5 mph 83 % 0.00 in
08:30 41.3 °F 36.2 °F 30.18 in WSW 2.4 mph 4.6 mph 82 % 0.00 in
08:35 41.5 °F 36.4 °F 30.18 in WSW 0.4 mph 1.2 mph 82 % 0.00 in
08:40 41.8 °F 36.4 °F 30.18 in WSW 0.7 mph 3.5 mph 81 % 0.00 in
08:46 42.0 °F 36.0 °F 30.18 in West 1.0 mph 2.3 mph 79 % 0.00 in
08:51 42.3 °F 36.3 °F 30.18 in WNW 3.2 mph 6.9 mph 79 % 0.00 in
08:56 42.6 °F 36.2 °F 30.18 in WNW 2.7 mph 4.6 mph 78 % 0.00 in
09:01 43.0 °F 36.6 °F 30.18 in West 1.0 mph 5.8 mph 78 % 0.00 in
09:06 43.4 °F 36.7 °F 30.18 in WSW 6.0 mph 9.2 mph 77 % 0.00 in
09:11 43.8 °F 36.7 °F 30.18 in West 2.9 mph 5.8 mph 76 % 0.00 in
09:16 44.2 °F 37.1 °F 30.18 in NW 2.6 mph 4.6 mph 76 % 0.00 in
09:21 44.5 °F 37.1 °F 30.18 in WSW 3.7 mph 4.6 mph 75 % 0.00 in
09:26 44.7 °F 36.9 °F 30.19 in NW 2.4 mph 5.8 mph 74 % 0.00 in
09:31 45.0 °F 37.2 °F 30.19 in NW 3.3 mph 5.0 mph 74 % 0.00 in
09:37 45.2 °F 36.7 °F 30.19 in NW 2.3 mph 8.1 mph 72 % 0.00 in
09:42 45.5 °F 37.0 °F 30.19 in WSW 2.4 mph 4.6 mph 72 % 0.00 in
09:47 45.7 °F 37.2 °F 30.19 in SW 4.3 mph 6.9 mph 72 % 0.00 in
09:52 45.9 °F 37.0 °F 30.19 in SW 2.6 mph 5.0 mph 71 % 0.00 in
09:57 46.1 °F 37.2 °F 30.19 in West 4.3 mph 6.9 mph 71 % 0.00 in
10:02 46.3 °F 37.4 °F 30.19 in SW 3.5 mph 6.9 mph 71 % 0.00 in
10:07 46.4 °F 37.1 °F 30.19 in NW 2.5 mph 4.6 mph 70 % 0.00 in
10:12 46.6 °F 37.0 °F 30.19 in WNW 2.4 mph 4.0 mph 69 % 0.00 in
10:17 46.7 °F 37.1 °F 30.18 in WNW 2.6 mph 4.6 mph 69 % 0.00 in
10:22 46.7 °F 37.1 °F 30.18 in West 3.1 mph 4.6 mph 69 % 0.00 in
10:28 46.8 °F 36.8 °F 30.18 in NW 0.8 mph 3.5 mph 68 % 0.00 in
10:33 46.8 °F 36.8 °F 30.18 in WNW 3.1 mph 4.6 mph 68 % 0.00 in
10:38 46.9 °F 36.5 °F 30.18 in WNW 1.7 mph 3.0 mph 67 % 0.00 in
10:43 47.0 °F 36.2 °F 30.18 in WNW 1.1 mph 2.3 mph 66 % 0.00 in
10:48 47.0 °F 36.6 °F 30.18 in NW 1.5 mph 2.3 mph 67 % 0.00 in
10:53 47.1 °F 36.7 °F 30.18 in West 2.5 mph 4.0 mph 67 % 0.00 in
10:58 47.1 °F 36.7 °F 30.18 in NW 3.8 mph 5.8 mph 67 % 0.00 in
11:03 47.1 °F 36.3 °F 30.17 in NW 1.3 mph 4.6 mph 66 % 0.00 in
11:08 47.0 °F 36.6 °F 30.17 in WSW 0.4 mph 2.3 mph 67 % 0.00 in
11:13 47.0 °F 36.6 °F 30.17 in WNW 1.1 mph 4.0 mph 67 % 0.00 in
11:19 47.0 °F 36.6 °F 30.17 in NW 2.6 mph 4.6 mph 67 % 0.00 in
11:24 47.0 °F 36.6 °F 30.17 in WSW 2.2 mph 6.9 mph 67 % 0.00 in
11:29 47.0 °F 36.6 °F 30.17 in West 2.4 mph 5.8 mph 67 % 0.00 in
11:34 46.9 °F 36.1 °F 30.17 in West 4.3 mph 5.8 mph 66 % 0.00 in
11:39 47.0 °F 35.8 °F 30.16 in NW 3.6 mph 6.9 mph 65 % 0.00 in
11:44 47.0 °F 35.8 °F 30.16 in WNW 2.4 mph 4.6 mph 65 % 0.00 in
11:49 47.1 °F 36.3 °F 30.16 in WNW 1.7 mph 4.0 mph 66 % 0.00 in
11:54 47.2 °F 36.0 °F 30.16 in WNW 2.5 mph 3.5 mph 65 % 0.00 in
11:59 47.3 °F 35.7 °F 30.15 in West 2.9 mph 3.5 mph 64 % 0.00 in
12:04 47.4 °F 36.2 °F 30.15 in WSW 4.2 mph 5.8 mph 65 % 0.00 in
12:10 47.6 °F 36.0 °F 30.15 in SW 5.2 mph 6.0 mph 64 % 0.00 in
12:15 47.9 °F 35.9 °F 30.14 in WSW 3.4 mph 6.0 mph 63 % 0.00 in
12:20 48.5 °F 36.5 °F 30.14 in WSW 5.0 mph 8.1 mph 63 % 0.00 in
12:25 48.7 °F 36.3 °F 30.14 in WSW 6.0 mph 9.0 mph 62 % 0.00 in
12:30 49.1 °F 35.8 °F 30.14 in WSW 5.0 mph 8.0 mph 60 % 0.00 in
12:35 49.4 °F 35.7 °F 30.14 in WSW 5.2 mph 7.0 mph 59 % 0.00 in
12:40 49.6 °F 35.4 °F 30.14 in WSW 6.0 mph 9.0 mph 58 % 0.00 in
12:45 49.8 °F 34.7 °F 30.13 in West 3.0 mph 7.0 mph 56 % 0.00 in
12:50 49.9 °F 34.8 °F 30.13 in West 0.7 mph 3.5 mph 56 % 0.00 in
12:55 50.0 °F 35.4 °F 30.13 in WSW 1.0 mph 5.0 mph 57 % 0.00 in
13:00 50.2 °F 35.5 °F 30.13 in SW 6.3 mph 6.3 mph 57 % 0.00 in
13:05 50.4 °F 35.3 °F 30.12 in WSW 4.1 mph 9.2 mph 56 % 0.00 in
13:10 50.5 °F 34.9 °F 30.12 in SW 2.7 mph 4.6 mph 55 % 0.00 in
13:15 50.5 °F 34.9 °F 30.13 in SW 2.5 mph 6.0 mph 55 % 0.00 in
13:20 50.7 °F 34.6 °F 30.12 in WSW 6.9 mph 9.2 mph 54 % 0.00 in
13:25 50.8 °F 34.7 °F 30.12 in West 0.5 mph 2.0 mph 54 % 0.00 in
13:30 51.0 °F 35.4 °F 30.12 in West 5.0 mph 6.9 mph 55 % 0.00 in
13:36 51.1 °F 35.0 °F 30.13 in WNW 0.7 mph 3.5 mph 54 % 0.00 in
13:41 51.3 °F 35.7 °F 30.12 in WNW 1.2 mph 5.0 mph 55 % 0.00 in
13:46 51.3 °F 34.3 °F 30.13 in NW 2.0 mph 6.9 mph 52 % 0.00 in
13:51 51.3 °F 34.7 °F 30.12 in West 1.7 mph 3.0 mph 53 % 0.00 in
13:56 51.3 °F 34.7 °F 30.13 in WNW 1.3 mph 3.5 mph 53 % 0.00 in
14:06 51.3 °F 34.3 °F 30.13 in WNW 3.9 mph 6.0 mph 52 % 0.00 in
14:11 51.2 °F 34.6 °F 30.12 in WSW 1.4 mph 5.8 mph 53 % 0.00 in
14:16 50.9 °F 34.4 °F 30.12 in SW 0.2 mph 2.3 mph 53 % 0.00 in
14:21 50.8 °F 34.3 °F 30.12 in West 3.5 mph 5.8 mph 53 % 0.00 in
14:27 50.6 °F 34.6 °F 30.12 in WSW 1.2 mph 3.5 mph 54 % 0.00 in
14:32 50.5 °F 34.5 °F 30.12 in WSW 0.4 mph 2.3 mph 54 % 0.00 in
14:37 50.3 °F 34.3 °F 30.12 in WSW 1.6 mph 3.0 mph 54 % 0.00 in
14:42 50.2 °F 34.6 °F 30.12 in WSW 1.3 mph 3.5 mph 55 % 0.00 in
14:47 50.1 °F 34.5 °F 30.11 in West 1.8 mph 3.5 mph 55 % 0.00 in
14:52 50.0 °F 34.5 °F 30.11 in West 1.2 mph 3.5 mph 55 % 0.00 in
14:57 49.9 °F 34.8 °F 30.11 in Calm   1.2 mph 56 % 0.00 in
15:02 49.9 °F 34.4 °F 30.11 in WNW 0.7 mph 2.3 mph 55 % 0.00 in
15:07 49.8 °F 34.7 °F 30.11 in WNW 1.5 mph 3.5 mph 56 % 0.00 in
15:12 49.7 °F 34.6 °F 30.11 in WNW 0.2 mph 1.0 mph 56 % 0.00 in
15:18 49.7 °F 35.1 °F 30.11 in Calm   1.2 mph 57 % 0.00 in
15:23 49.6 °F 35.0 °F 30.11 in Calm     57 % 0.00 in
15:28 49.5 °F 34.9 °F 30.11 in Calm     57 % 0.00 in
15:33 49.4 °F 34.8 °F 30.11 in WNW 1.2 mph 2.3 mph 57 % 0.00 in
15:38 49.4 °F 34.8 °F 30.11 in WNW 0.1 mph   57 % 0.00 in
15:43 49.3 °F 35.1 °F 30.11 in Calm     58 % 0.00 in
15:48 49.2 °F 35.0 °F 30.11 in Calm     58 % 0.00 in
15:53 49.1 °F 34.9 °F 30.11 in Calm     58 % 0.00 in
15:58 49.1 °F 35.4 °F 30.11 in Calm     59 % 0.00 in
16:03 48.9 °F 35.6 °F 30.11 in Calm     60 % 0.00 in
16:08 48.7 °F 35.4 °F 30.11 in Calm     60 % 0.00 in
16:13 48.4 °F 35.6 °F 30.10 in Calm     61 % 0.00 in
16:19 48.1 °F 36.1 °F 30.10 in Calm     63 % 0.00 in
16:24 47.8 °F 35.8 °F 30.11 in Calm     63 % 0.00 in
16:29 47.4 °F 35.4 °F 30.10 in Calm     63 % 0.00 in
16:34 47.2 °F 35.2 °F 30.11 in Calm     63 % 0.00 in
16:39 46.9 °F 35.0 °F 30.11 in Calm     63 % 0.00 in
16:44 46.6 °F 35.1 °F 30.11 in WSW 0.9 mph 2.3 mph 64 % 0.00 in
16:49 46.1 °F 34.6 °F 30.12 in SSW 3.4 mph 5.8 mph 64 % 0.00 in
16:54 45.8 °F 34.3 °F 30.12 in SW 0.1 mph 2.3 mph 64 % 0.00 in
16:59 45.5 °F 34.0 °F 30.12 in SSW 1.6 mph 5.8 mph 64 % 0.00 in
17:04 45.3 °F 33.8 °F 30.12 in SSW 1.3 mph 2.3 mph 64 % 0.00 in
17:10 45.2 °F 33.7 °F 30.12 in SSW 2.4 mph 4.6 mph 64 % 0.00 in
17:15 45.1 °F 34.0 °F 30.12 in SSW 0.3 mph 1.2 mph 65 % 0.00 in
17:20 45.1 °F 34.0 °F 30.12 in Calm   2.0 mph 65 % 0.00 in
17:25 44.9 °F 33.8 °F 30.12 in Calm   1.0 mph 65 % 0.00 in
17:30 44.8 °F 33.7 °F 30.12 in Calm   3.0 mph 65 % 0.00 in
17:35 44.7 °F 34.0 °F 30.12 in Calm   2.0 mph 66 % 0.00 in
17:40 44.5 °F 34.2 °F 30.12 in Calm   2.0 mph 67 % 0.00 in
17:45 44.3 °F 34.0 °F 30.12 in Calm   2.0 mph 67 % 0.00 in
17:50 44.2 °F 33.9 °F 30.12 in Calm   3.0 mph 67 % 0.00 in
17:55 44.1 °F 34.2 °F 30.12 in Calm   2.0 mph 68 % 0.00 in
18:00 43.9 °F 34.0 °F 30.12 in South 0.3 mph 3.5 mph 68 % 0.00 in
18:05 43.8 °F 34.3 °F 30.12 in South 0.3 mph 2.3 mph 69 % 0.00 in
18:10 43.6 °F 34.1 °F 30.12 in South 0.1 mph 1.2 mph 69 % 0.00 in
18:15 43.6 °F 34.1 °F 30.12 in South 0.6 mph 2.3 mph 69 % 0.00 in
18:20 43.5 °F 34.4 °F 30.12 in South 1.1 mph 3.5 mph 70 % 0.00 in
18:25 43.3 °F 34.2 °F 30.13 in South 1.0 mph 2.3 mph 70 % 0.00 in
18:30 43.2 °F 34.1 °F 30.13 in South 1.1 mph 2.3 mph 70 % 0.00 in
18:35 43.1 °F 34.3 °F 30.13 in SW 1.5 mph 3.5 mph 71 % 0.00 in
18:41 43.1 °F 34.7 °F 30.14 in SW 0.7 mph 2.3 mph 72 % 0.00 in
18:46 43.0 °F 34.6 °F 30.14 in SW 1.1 mph 3.0 mph 72 % 0.00 in
18:51 42.9 °F 34.5 °F 30.14 in SW 0.9 mph 3.5 mph 72 % 0.00 in
18:56 42.9 °F 34.8 °F 30.14 in SW 1.1 mph 2.3 mph 73 % 0.00 in
19:01 42.8 °F 34.7 °F 30.14 in SW 0.7 mph 2.3 mph 73 % 0.00 in
19:06 42.8 °F 34.7 °F 30.14 in SW 0.6 mph 2.3 mph 73 % 0.00 in
19:11 42.8 °F 34.7 °F 30.14 in SW 0.4 mph 2.3 mph 73 % 0.00 in
19:16 42.7 °F 34.6 °F 30.14 in SW 0.4 mph 1.2 mph 73 % 0.00 in
19:21 42.7 °F 35.0 °F 30.13 in SW 0.3 mph 1.2 mph 74 % 0.00 in
19:26 42.6 °F 34.9 °F 30.13 in SW 0.4 mph 1.2 mph 74 % 0.00 in
19:32 42.5 °F 34.8 °F 30.13 in SW 1.0 mph 2.3 mph 74 % 0.00 in
19:37 42.5 °F 35.1 °F 30.12 in SW 0.5 mph 1.2 mph 75 % 0.00 in
19:42 42.4 °F 35.0 °F 30.13 in SW 0.6 mph 2.3 mph 75 % 0.00 in
19:47 42.3 °F 35.3 °F 30.13 in SW 0.2 mph 2.3 mph 76 % 0.00 in
19:52 42.2 °F 35.2 °F 30.13 in SW 0.3 mph 1.2 mph 76 % 0.00 in
19:57 42.1 °F 35.1 °F 30.13 in SW 0.1 mph 2.3 mph 76 % 0.00 in
20:02 42.1 °F 35.4 °F 30.13 in SW 0.1 mph 1.2 mph 77 % 0.00 in
20:07 42.0 °F 35.3 °F 30.13 in SW 0.1 mph 1.0 mph 77 % 0.00 in
20:12 42.0 °F 35.3 °F 30.13 in Calm   1.2 mph 77 % 0.00 in
20:17 41.9 °F 35.5 °F 30.13 in SW 0.3 mph 1.2 mph 78 % 0.00 in
20:23 41.8 °F 35.4 °F 30.13 in Calm   1.2 mph 78 % 0.00 in
20:28 41.8 °F 35.8 °F 30.14 in Calm     79 % 0.00 in
20:33 41.7 °F 35.7 °F 30.13 in Calm     79 % 0.00 in
20:38 41.6 °F 35.6 °F 30.14 in Calm   1.2 mph 79 % 0.00 in
20:43 41.5 °F 35.8 °F 30.14 in Calm   1.2 mph 80 % 0.00 in
20:48 41.5 °F 35.8 °F 30.14 in Calm     80 % 0.00 in
20:53 41.4 °F 36.0 °F 30.13 in Calm     81 % 0.00 in
20:59 41.3 °F 35.9 °F 30.14 in Calm     81 % 0.00 in
21:04 41.3 °F 36.2 °F 30.14 in Calm     82 % 0.00 in
21:09 41.2 °F 36.1 °F 30.14 in Calm     82 % 0.00 in
21:14 41.1 °F 36.0 °F 30.14 in Calm     82 % 0.00 in
21:19 41.0 °F 35.9 °F 30.14 in Calm     82 % 0.00 in
21:24 40.9 °F 35.8 °F 30.14 in Calm     82 % 0.00 in
21:29 40.9 °F 35.8 °F 30.13 in Calm     82 % 0.00 in
21:34 40.7 °F 35.6 °F 30.13 in Calm     82 % 0.00 in
21:39 40.6 °F 35.5 °F 30.13 in Calm     82 % 0.00 in
21:44 40.5 °F 35.4 °F 30.13 in Calm     82 % 0.00 in
21:50 40.4 °F 35.6 °F 30.13 in Calm     83 % 0.00 in
21:55 40.3 °F 35.5 °F 30.13 in Calm     83 % 0.00 in
22:00 40.2 °F 35.4 °F 30.12 in Calm     83 % 0.00 in
22:05 40.1 °F 35.4 °F 30.12 in Calm     83 % 0.00 in
22:10 40.0 °F 35.6 °F 30.12 in Calm     84 % 0.00 in
22:15 39.9 °F 35.5 °F 30.12 in Calm     84 % 0.00 in
22:20 39.8 °F 35.7 °F 30.12 in Calm     85 % 0.00 in
22:25 39.7 °F 35.6 °F 30.12 in Calm     85 % 0.00 in
22:30 39.6 °F 35.5 °F 30.12 in Calm     85 % 0.00 in
22:35 39.5 °F 35.4 °F 30.12 in Calm     85 % 0.00 in
22:40 39.5 °F 35.7 °F 30.13 in Calm     86 % 0.00 in
22:45 39.5 °F 35.6 °F 30.13 in Calm     86 % 0.00 in
22:50 39.4 °F 35.9 °F 30.13 in Calm     87 % 0.00 in
22:55 39.4 °F 35.9 °F 30.13 in Calm   1.0 mph 87 % 0.00 in
23:00 39.4 °F 35.9 °F 30.14 in SW 0.1 mph 1.2 mph 87 % 0.00 in
23:05 39.5 °F 36.2 °F 30.14 in SW 0.1 mph 1.2 mph 88 % 0.00 in
23:10 39.6 °F 36.6 °F 30.14 in Calm     89 % 0.00 in
23:15 39.7 °F 37.0 °F 30.13 in Calm     90 % 0.00 in
23:20 39.9 °F 37.2 °F 30.13 in Calm     90 % 0.00 in
23:25 40.0 °F 37.3 °F 30.13 in Calm     90 % 0.00 in
23:31 40.0 °F 37.3 °F 30.13 in Calm     90 % 0.00 in
23:36 40.1 °F 37.4 °F 30.13 in Calm     90 % 0.00 in
23:41 40.1 °F 37.4 °F 30.13 in Calm     90 % 0.00 in
23:46 40.2 °F 37.5 °F 30.14 in Calm     90 % 0.00 in
23:51 40.3 °F 37.6 °F 30.13 in Calm     90 % 0.00 in
23:56 40.4 °F 37.7 °F 30.13 in Calm     90 % 0.00 in
Crab Meadow Weather
Compliments of Weather Underground - 3 mb

Script developed by  Jim McMurry - jmcmurry@mwt.net Adapted for the template by  Wim van der Kuil - Leuven-Template.eu

Recycling: A used aluminum can is recycled and back on the grocery shelf as a new can, in as little as 60 days.